createdAt,value
2018-12-26T00:00:02.601Z,0
2018-12-26T00:01:06.142Z,0
2018-12-26T00:02:08.502Z,0
2018-12-26T00:03:10.836Z,0
2018-12-26T00:04:12.888Z,0
2018-12-26T00:05:14.949Z,0
2018-12-26T00:06:17.125Z,0
2018-12-26T00:07:19.462Z,0
2018-12-26T00:08:21.509Z,0
2018-12-26T00:09:23.582Z,0
2018-12-26T00:10:25.629Z,0
2018-12-26T00:11:27.664Z,0
2018-12-26T00:12:29.700Z,0
2018-12-26T00:13:31.738Z,0
2018-12-26T00:14:33.780Z,0
2018-12-26T00:15:35.811Z,0
2018-12-26T00:16:37.850Z,0
2018-12-26T00:17:39.905Z,0
2018-12-26T00:18:42.090Z,0
2018-12-26T00:19:45.303Z,0
2018-12-26T00:20:47.380Z,0
2018-12-26T00:21:49.427Z,0
2018-12-26T00:22:51.868Z,0
2018-12-26T00:23:54.023Z,0
2018-12-26T00:24:56.847Z,0
2018-12-26T00:26:01.679Z,0
2018-12-26T00:27:04.318Z,0
2018-12-26T00:28:06.355Z,0
2018-12-26T00:29:08.388Z,0
2018-12-26T00:30:10.501Z,0
2018-12-26T00:31:12.931Z,0
2018-12-26T00:32:15.251Z,0
2018-12-26T00:33:17.291Z,0
2018-12-26T00:34:19.346Z,0
2018-12-26T00:35:21.392Z,0
2018-12-26T00:36:23.436Z,0
2018-12-26T00:37:25.895Z,0
2018-12-26T00:38:27.926Z,0
2018-12-26T00:39:29.968Z,0
2018-12-26T00:40:32.027Z,0
2018-12-26T00:41:34.150Z,0
2018-12-26T00:42:36.187Z,0
2018-12-26T00:43:38.530Z,0
2018-12-26T00:44:40.876Z,0
2018-12-26T00:45:43.327Z,0
2018-12-26T00:46:45.356Z,0
2018-12-26T00:47:47.406Z,0
2018-12-26T00:48:49.440Z,0
2018-12-26T00:49:51.477Z,0
2018-12-26T00:50:53.520Z,0
2018-12-26T00:51:55.556Z,0
2018-12-26T00:52:57.603Z,0
2018-12-26T00:53:59.638Z,0
2018-12-26T00:55:01.684Z,0
2018-12-26T00:56:10.356Z,0
2018-12-26T00:57:12.717Z,0
2018-12-26T00:58:17.392Z,0
2018-12-26T00:59:19.422Z,0
2018-12-26T01:00:21.448Z,0
2018-12-26T01:01:23.510Z,0
2018-12-26T01:02:25.564Z,0
2018-12-26T01:03:27.624Z,0
2018-12-26T01:04:29.681Z,0
2018-12-26T01:05:31.776Z,0
2018-12-26T01:06:33.944Z,0
2018-12-26T01:07:36.016Z,0
2018-12-26T01:08:38.364Z,0
2018-12-26T01:09:40.396Z,0
2018-12-26T01:10:42.444Z,0
2018-12-26T01:11:44.487Z,0
2018-12-26T01:12:47.208Z,0
2018-12-26T01:13:49.632Z,0
2018-12-26T01:14:51.671Z,0
2018-12-26T01:15:54.001Z,0
2018-12-26T01:16:56.042Z,0
2018-12-26T01:17:58.219Z,0
2018-12-26T01:19:00.374Z,0
2018-12-26T01:20:02.468Z,0
2018-12-26T01:21:04.520Z,0
2018-12-26T01:22:06.564Z,0
2018-12-26T01:23:08.611Z,0
2018-12-26T01:24:10.649Z,0
2018-12-26T01:25:12.706Z,0
2018-12-26T01:26:19.043Z,0
2018-12-26T01:27:21.402Z,0
2018-12-26T01:28:23.451Z,0
2018-12-26T01:29:25.492Z,0
2018-12-26T01:30:27.524Z,0
2018-12-26T01:31:29.604Z,0
2018-12-26T01:32:31.648Z,0
2018-12-26T01:33:33.704Z,0
2018-12-26T01:34:35.734Z,0
2018-12-26T01:35:37.772Z,0
2018-12-26T01:36:39.821Z,0
2018-12-26T01:37:41.884Z,0
2018-12-26T01:38:44.342Z,0
2018-12-26T01:39:46.383Z,0
2018-12-26T01:40:48.432Z,0
2018-12-26T01:41:50.471Z,0
2018-12-26T01:42:52.830Z,0
2018-12-26T01:43:55.270Z,0
2018-12-26T01:44:57.602Z,0
2018-12-26T01:45:59.651Z,0
2018-12-26T01:47:01.683Z,0
2018-12-26T01:48:03.739Z,0
2018-12-26T01:49:05.881Z,0
2018-12-26T01:50:07.924Z,0
2018-12-26T01:51:10.276Z,0
2018-12-26T01:52:12.318Z,0
2018-12-26T01:53:14.366Z,0
2018-12-26T01:54:16.398Z,0
2018-12-26T01:55:18.465Z,0
2018-12-26T01:56:27.824Z,0
2018-12-26T01:57:30.527Z,0
2018-12-26T01:58:32.557Z,0
2018-12-26T01:59:34.596Z,0
2018-12-26T02:00:36.645Z,0
2018-12-26T02:01:38.681Z,0
2018-12-26T02:02:40.999Z,0
2018-12-26T02:03:43.061Z,0
2018-12-26T02:04:45.097Z,0
2018-12-26T02:05:47.142Z,0
2018-12-26T02:06:49.187Z,0
2018-12-26T02:07:51.535Z,0
2018-12-26T02:08:53.578Z,0
2018-12-26T02:09:55.611Z,0
2018-12-26T02:10:57.653Z,0
2018-12-26T02:11:59.694Z,0
2018-12-26T02:13:01.753Z,0
2018-12-26T02:14:03.794Z,0
2018-12-26T02:15:05.835Z,0
2018-12-26T02:16:07.879Z,0
2018-12-26T02:17:10.197Z,0
2018-12-26T02:18:12.237Z,0
2018-12-26T02:19:14.268Z,0
2018-12-26T02:20:16.305Z,0
2018-12-26T02:21:18.352Z,0
2018-12-26T02:22:20.403Z,0
2018-12-26T02:23:22.455Z,0
2018-12-26T02:24:24.778Z,0
2018-12-26T02:25:27.095Z,0
2018-12-26T02:26:36.328Z,0
2018-12-26T02:27:38.881Z,0
2018-12-26T02:28:40.924Z,0
2018-12-26T02:29:42.972Z,0
2018-12-26T02:30:45.007Z,0
2018-12-26T02:31:47.738Z,0
2018-12-26T02:32:49.866Z,0
2018-12-26T02:33:52.205Z,0
2018-12-26T02:34:55.481Z,0
2018-12-26T02:35:57.521Z,0
2018-12-26T02:36:59.573Z,0
2018-12-26T02:38:01.781Z,0
2018-12-26T02:39:04.096Z,0
2018-12-26T02:40:06.529Z,0
2018-12-26T02:41:09.159Z,0
2018-12-26T02:42:11.222Z,0
2018-12-26T02:43:13.281Z,0
2018-12-26T02:44:15.321Z,0
2018-12-26T02:45:17.368Z,0
2018-12-26T02:46:19.432Z,0
2018-12-26T02:47:21.646Z,0
2018-12-26T02:48:23.690Z,0
2018-12-26T02:49:25.790Z,0
2018-12-26T02:50:28.150Z,0
2018-12-26T02:51:30.208Z,0
2018-12-26T02:52:32.560Z,0
2018-12-26T02:53:34.630Z,0
2018-12-26T02:54:36.971Z,0
2018-12-26T02:55:39.020Z,0
2018-12-26T02:56:46.302Z,0
2018-12-26T02:57:51.294Z,0
2018-12-26T02:58:53.342Z,0
2018-12-26T02:59:55.801Z,0
2018-12-26T03:00:57.874Z,0
2018-12-26T03:01:59.979Z,0
2018-12-26T03:03:02.029Z,0
2018-12-26T03:04:05.054Z,0
2018-12-26T03:05:07.439Z,0
2018-12-26T03:06:09.790Z,0
2018-12-26T03:07:11.855Z,0
2018-12-26T03:08:13.917Z,0
2018-12-26T03:09:16.013Z,0
2018-12-26T03:10:18.060Z,0
2018-12-26T03:11:20.112Z,0
2018-12-26T03:12:22.176Z,0
2018-12-26T03:13:24.280Z,0
2018-12-26T03:14:26.335Z,0
2018-12-26T03:15:28.375Z,0
2018-12-26T03:16:30.430Z,0
2018-12-26T03:17:32.485Z,0
2018-12-26T03:18:34.535Z,0
2018-12-26T03:19:36.583Z,0
2018-12-26T03:20:38.907Z,0
2018-12-26T03:21:40.950Z,0
2018-12-26T03:22:43.267Z,0
2018-12-26T03:23:45.302Z,0
2018-12-26T03:24:47.627Z,0
2018-12-26T03:25:49.776Z,0
2018-12-26T03:26:56.239Z,0
2018-12-26T03:27:58.950Z,0
2018-12-26T03:29:01.011Z,0
2018-12-26T03:30:03.343Z,0
2018-12-26T03:31:05.452Z,0
2018-12-26T03:32:07.864Z,0
2018-12-26T03:33:09.922Z,0
2018-12-26T03:34:12.654Z,0
2018-12-26T03:35:15.022Z,0
2018-12-26T03:36:17.176Z,0
2018-12-26T03:37:19.243Z,0
2018-12-26T03:38:21.290Z,0
2018-12-26T03:39:23.336Z,0
2018-12-26T03:40:25.432Z,0
2018-12-26T03:41:27.577Z,0
2018-12-26T03:42:29.629Z,0
2018-12-26T03:43:32.085Z,0
2018-12-26T03:44:34.193Z,0
2018-12-26T03:45:36.232Z,0
2018-12-26T03:46:38.302Z,0
2018-12-26T03:47:40.362Z,0
2018-12-26T03:48:42.409Z,0
2018-12-26T03:49:44.464Z,0
2018-12-26T03:50:46.523Z,0
2018-12-26T03:51:48.573Z,0
2018-12-26T03:52:50.616Z,0
2018-12-26T03:53:53.057Z,0
2018-12-26T03:54:55.087Z,0
2018-12-26T03:55:57.423Z,0
2018-12-26T03:57:05.733Z,0
2018-12-26T03:58:08.641Z,0
2018-12-26T03:59:11.099Z,0
2018-12-26T04:00:13.549Z,0
2018-12-26T04:01:15.658Z,0
2018-12-26T04:02:17.703Z,0
2018-12-26T04:03:19.758Z,0
2018-12-26T04:04:21.805Z,0
2018-12-26T04:05:23.895Z,0
2018-12-26T04:06:26.387Z,0
2018-12-26T04:07:28.461Z,0
2018-12-26T04:08:30.500Z,0
2018-12-26T04:09:32.543Z,0
2018-12-26T04:10:34.595Z,0
2018-12-26T04:11:37.232Z,0
2018-12-26T04:12:39.301Z,0
2018-12-26T04:13:41.355Z,0
2018-12-26T04:14:43.410Z,0
2018-12-26T04:15:45.462Z,0
2018-12-26T04:16:47.510Z,0
2018-12-26T04:17:49.839Z,0
2018-12-26T04:18:51.888Z,0
2018-12-26T04:19:53.942Z,0
2018-12-26T04:20:56.130Z,0
2018-12-26T04:21:58.468Z,0
2018-12-26T04:23:00.799Z,0
2018-12-26T04:24:02.954Z,0
2018-12-26T04:25:05.008Z,0
2018-12-26T04:26:07.330Z,0
2018-12-26T04:27:15.398Z,0
2018-12-26T04:28:18.510Z,0
2018-12-26T04:29:20.573Z,0
2018-12-26T04:30:22.645Z,0
2018-12-26T04:31:24.691Z,0
2018-12-26T04:32:27.124Z,0
2018-12-26T04:33:29.182Z,0
2018-12-26T04:34:31.246Z,0
2018-12-26T04:35:33.302Z,0
2018-12-26T04:36:35.735Z,0
2018-12-26T04:37:37.900Z,0
2018-12-26T04:38:39.948Z,0
2018-12-26T04:39:41.998Z,0
2018-12-26T04:40:44.043Z,0
2018-12-26T04:41:46.094Z,0
2018-12-26T04:42:48.135Z,0
2018-12-26T04:43:51.387Z,0
2018-12-26T04:44:53.568Z,0
2018-12-26T04:45:55.892Z,0
2018-12-26T04:46:58.249Z,0
2018-12-26T04:48:00.305Z,0
2018-12-26T04:49:02.663Z,0
2018-12-26T04:50:05.006Z,0
2018-12-26T04:51:07.157Z,0
2018-12-26T04:52:09.778Z,0
2018-12-26T04:53:11.848Z,0
2018-12-26T04:54:13.887Z,0
2018-12-26T04:55:15.935Z,0
2018-12-26T04:56:18.297Z,0
2018-12-26T04:57:24.605Z,0
2018-12-26T04:58:27.436Z,0
2018-12-26T04:59:29.472Z,0
2018-12-26T05:00:31.835Z,0
2018-12-26T05:01:33.903Z,0
2018-12-26T05:02:36.084Z,0
2018-12-26T05:03:38.146Z,0
2018-12-26T05:04:40.497Z,0
2018-12-26T05:05:42.547Z,0
2018-12-26T05:06:44.700Z,0
2018-12-26T05:07:46.767Z,0
2018-12-26T05:08:49.197Z,0
2018-12-26T05:09:51.256Z,0
2018-12-26T05:10:53.584Z,0
2018-12-26T05:11:55.617Z,0
2018-12-26T05:12:57.941Z,0
2018-12-26T05:14:00.003Z,0
2018-12-26T05:15:02.717Z,0
2018-12-26T05:16:04.764Z,0
2018-12-26T05:17:07.180Z,0
2018-12-26T05:18:09.889Z,0
2018-12-26T05:19:11.934Z,0
2018-12-26T05:20:13.971Z,0
2018-12-26T05:21:16.421Z,0
2018-12-26T05:22:18.473Z,0
2018-12-26T05:23:20.910Z,0
2018-12-26T05:24:22.938Z,0
2018-12-26T05:25:24.978Z,0
2018-12-26T05:26:27.312Z,0
2018-12-26T05:27:34.072Z,0
2018-12-26T05:28:36.672Z,0
2018-12-26T05:29:39.689Z,0
2018-12-26T05:30:41.718Z,0
2018-12-26T05:31:43.768Z,0
2018-12-26T05:32:45.821Z,0
2018-12-26T05:33:47.867Z,0
2018-12-26T05:34:49.919Z,0
2018-12-26T05:35:52.090Z,0
2018-12-26T05:36:54.141Z,0
2018-12-26T05:37:56.163Z,0
2018-12-26T05:38:58.215Z,0
2018-12-26T05:40:00.244Z,0
2018-12-26T05:41:02.580Z,0
2018-12-26T05:42:05.234Z,0
2018-12-26T05:43:07.280Z,0
2018-12-26T05:44:09.339Z,0
2018-12-26T05:45:11.389Z,0
2018-12-26T05:46:13.856Z,0
2018-12-26T05:47:15.973Z,0
2018-12-26T05:48:18.011Z,0
2018-12-26T05:49:20.329Z,0
2018-12-26T05:50:22.751Z,0
2018-12-26T05:51:24.814Z,0
2018-12-26T05:52:26.852Z,0
2018-12-26T05:53:28.887Z,0
2018-12-26T05:54:31.033Z,0
2018-12-26T05:55:33.072Z,0
2018-12-26T05:56:37.372Z,0
2018-12-26T05:57:42.853Z,0
2018-12-26T05:58:45.212Z,0
2018-12-26T05:59:47.252Z,0
2018-12-26T06:00:49.299Z,0
2018-12-26T06:01:51.351Z,0
2018-12-26T06:02:53.391Z,0
2018-12-26T06:03:55.432Z,0
2018-12-26T06:04:57.754Z,0
2018-12-26T06:06:00.107Z,0
2018-12-26T06:07:02.426Z,0
2018-12-26T06:08:04.465Z,0
2018-12-26T06:09:06.502Z,0
2018-12-26T06:10:08.536Z,0
2018-12-26T06:11:10.591Z,0
2018-12-26T06:12:12.753Z,0
2018-12-26T06:13:14.807Z,0
2018-12-26T06:14:16.834Z,0
2018-12-26T06:15:18.873Z,0
2018-12-26T06:16:21.292Z,0
2018-12-26T06:17:23.330Z,0
2018-12-26T06:18:25.489Z,0
2018-12-26T06:19:27.527Z,0
2018-12-26T06:20:29.587Z,0
2018-12-26T06:21:31.639Z,0
2018-12-26T06:22:33.675Z,0
2018-12-26T06:23:35.703Z,0
2018-12-26T06:24:37.871Z,0
2018-12-26T06:25:39.914Z,0
2018-12-26T06:26:41.953Z,0
2018-12-26T06:27:51.189Z,0
2018-12-26T06:28:53.708Z,0
2018-12-26T06:29:56.440Z,0
2018-12-26T06:30:58.486Z,0
2018-12-26T06:32:01.123Z,0
2018-12-26T06:33:03.196Z,0
2018-12-26T06:34:05.269Z,0
2018-12-26T06:35:07.311Z,0
2018-12-26T06:36:09.354Z,0
2018-12-26T06:37:11.397Z,0
2018-12-26T06:38:13.431Z,0
2018-12-26T06:39:15.488Z,0
2018-12-26T06:40:17.529Z,0
2018-12-26T06:41:19.588Z,0
2018-12-26T06:42:22.043Z,0
2018-12-26T06:43:24.479Z,0
2018-12-26T06:44:26.520Z,0
2018-12-26T06:45:28.848Z,0
2018-12-26T06:46:31.185Z,0
2018-12-26T06:47:33.219Z,0
2018-12-26T06:48:35.278Z,0
2018-12-26T06:49:37.317Z,0
2018-12-26T06:50:39.381Z,0
2018-12-26T06:51:41.535Z,0
2018-12-26T06:52:43.585Z,0
2018-12-26T06:53:45.618Z,0
2018-12-26T06:54:47.938Z,0
2018-12-26T06:55:50.063Z,0
2018-12-26T06:56:52.128Z,4
2018-12-26T06:57:59.978Z,4
2018-12-26T06:59:02.687Z,0
2018-12-26T07:00:04.763Z,4
2018-12-26T07:01:06.810Z,4
2018-12-26T07:02:08.843Z,0
2018-12-26T07:03:10.878Z,4
2018-12-26T07:04:12.930Z,8
2018-12-26T07:05:14.962Z,4
2018-12-26T07:06:17.322Z,4
2018-12-26T07:07:19.363Z,12
2018-12-26T07:08:21.410Z,8
2018-12-26T07:09:23.729Z,8
2018-12-26T07:10:25.792Z,12
2018-12-26T07:11:27.864Z,16
2018-12-26T07:12:29.905Z,16
2018-12-26T07:13:31.961Z,16
2018-12-26T07:14:34.120Z,20
2018-12-26T07:15:36.168Z,20
2018-12-26T07:16:38.193Z,28
2018-12-26T07:17:40.245Z,32
2018-12-26T07:18:42.298Z,32
2018-12-26T07:19:44.350Z,36
2018-12-26T07:20:46.406Z,40
2018-12-26T07:21:48.467Z,44
2018-12-26T07:22:50.535Z,44
2018-12-26T07:23:52.577Z,52
2018-12-26T07:24:54.626Z,52
2018-12-26T07:25:56.761Z,60
2018-12-26T07:26:58.876Z,76
2018-12-26T07:28:08.706Z,80
2018-12-26T07:29:11.414Z,80
2018-12-26T07:30:13.474Z,84
2018-12-26T07:31:15.793Z,100
2018-12-26T07:32:17.828Z,108
2018-12-26T07:33:20.161Z,100
2018-12-26T07:34:22.660Z,104
2018-12-26T07:35:25.100Z,112
2018-12-26T07:36:27.419Z,116
2018-12-26T07:37:29.462Z,128
2018-12-26T07:38:31.509Z,140
2018-12-26T07:39:33.941Z,140
2018-12-26T07:40:35.975Z,156
2018-12-26T07:41:38.010Z,156
2018-12-26T07:42:40.129Z,160
2018-12-26T07:43:42.166Z,192
2018-12-26T07:44:44.202Z,196
2018-12-26T07:45:46.242Z,196
2018-12-26T07:46:48.291Z,212
2018-12-26T07:47:50.334Z,200
2018-12-26T07:48:52.450Z,200
2018-12-26T07:49:54.514Z,224
2018-12-26T07:50:56.832Z,228
2018-12-26T07:51:59.543Z,224
2018-12-26T07:53:01.604Z,244
2018-12-26T07:54:03.708Z,256
2018-12-26T07:55:05.764Z,256
2018-12-26T07:56:07.932Z,236
2018-12-26T07:57:09.981Z,240
2018-12-26T07:58:17.492Z,252
2018-12-26T07:59:19.830Z,288
2018-12-26T08:00:21.864Z,304
2018-12-26T08:01:23.901Z,400
2018-12-26T08:02:26.074Z,444
2018-12-26T08:03:28.171Z,380
2018-12-26T08:04:30.561Z,356
2018-12-26T08:05:32.867Z,444
2018-12-26T08:06:34.902Z,432
2018-12-26T08:07:36.945Z,396
2018-12-26T08:08:38.990Z,440
2018-12-26T08:09:41.191Z,472
2018-12-26T08:10:43.527Z,484
2018-12-26T08:11:45.571Z,444
2018-12-26T08:12:47.628Z,452
2018-12-26T08:13:49.687Z,460
2018-12-26T08:14:51.733Z,424
2018-12-26T08:15:54.058Z,500
2018-12-26T08:16:56.177Z,508
2018-12-26T08:17:58.606Z,520
2018-12-26T08:19:00.646Z,480
2018-12-26T08:20:02.686Z,480
2018-12-26T08:21:04.722Z,508
2018-12-26T08:22:06.771Z,484
2018-12-26T08:23:09.406Z,500
2018-12-26T08:24:11.455Z,480
2018-12-26T08:25:13.799Z,496
2018-12-26T08:26:15.868Z,472
2018-12-26T08:27:17.892Z,424
2018-12-26T08:28:26.433Z,432
2018-12-26T08:29:30.692Z,480
2018-12-26T08:30:33.419Z,500
2018-12-26T08:31:35.464Z,476
2018-12-26T08:32:37.510Z,472
2018-12-26T08:33:39.965Z,480
2018-12-26T08:34:41.996Z,452
2018-12-26T08:35:44.129Z,460
2018-12-26T08:36:46.190Z,532
2018-12-26T08:37:48.235Z,528
2018-12-26T08:38:50.303Z,544
2018-12-26T08:39:52.352Z,572
2018-12-26T08:40:54.393Z,580
2018-12-26T08:41:56.438Z,484
2018-12-26T08:42:58.479Z,516
2018-12-26T08:44:00.515Z,560
2018-12-26T08:45:02.572Z,568
2018-12-26T08:46:05.015Z,568
2018-12-26T08:47:07.335Z,568
2018-12-26T08:48:09.384Z,548
2018-12-26T08:49:11.430Z,592
2018-12-26T08:50:13.852Z,532
2018-12-26T08:51:15.917Z,548
2018-12-26T08:52:17.960Z,628
2018-12-26T08:53:20.005Z,608
2018-12-26T08:54:22.323Z,572
2018-12-26T08:55:24.646Z,600
2018-12-26T08:56:26.662Z,556
2018-12-26T08:57:28.703Z,560
2018-12-26T08:58:35.079Z,588
2018-12-26T08:59:37.421Z,644
2018-12-26T09:00:39.457Z,640
2018-12-26T09:01:41.499Z,624
2018-12-26T09:02:43.825Z,660
2018-12-26T09:03:45.888Z,620
2018-12-26T09:04:48.234Z,720
2018-12-26T09:05:50.277Z,664
2018-12-26T09:06:52.615Z,716
2018-12-26T09:07:54.668Z,732
2018-12-26T09:08:56.703Z,732
2018-12-26T09:09:58.764Z,740
2018-12-26T09:11:00.818Z,772
2018-12-26T09:12:02.869Z,716
2018-12-26T09:13:04.913Z,752
2018-12-26T09:14:06.955Z,776
2018-12-26T09:15:09.011Z,704
2018-12-26T09:16:11.065Z,692
2018-12-26T09:17:13.133Z,700
2018-12-26T09:18:15.293Z,692
2018-12-26T09:19:17.411Z,716
2018-12-26T09:20:19.706Z,724
2018-12-26T09:21:21.912Z,780
2018-12-26T09:22:23.961Z,804
2018-12-26T09:23:26.002Z,888
2018-12-26T09:24:28.067Z,992
2018-12-26T09:25:30.502Z,992
2018-12-26T09:26:32.555Z,928
2018-12-26T09:27:34.609Z,1076
2018-12-26T09:28:43.709Z,1008
2018-12-26T09:29:46.295Z,1012
2018-12-26T09:30:48.328Z,948
2018-12-26T09:31:50.367Z,932
2018-12-26T09:32:52.417Z,968
2018-12-26T09:33:54.453Z,980
2018-12-26T09:34:56.498Z,1080
2018-12-26T09:35:58.832Z,1124
2018-12-26T09:37:00.878Z,1144
2018-12-26T09:38:03.241Z,1080
2018-12-26T09:39:05.676Z,1172
2018-12-26T09:40:07.742Z,1136
2018-12-26T09:41:09.790Z,1112
2018-12-26T09:42:11.847Z,1072
2018-12-26T09:43:13.907Z,1088
2018-12-26T09:44:15.966Z,992
2018-12-26T09:45:18.678Z,928
2018-12-26T09:46:20.725Z,880
2018-12-26T09:47:22.781Z,1088
2018-12-26T09:48:24.837Z,1196
2018-12-26T09:49:27.176Z,1420
2018-12-26T09:50:29.220Z,1376
2018-12-26T09:51:31.278Z,1508
2018-12-26T09:52:33.329Z,1372
2018-12-26T09:53:35.670Z,1260
2018-12-26T09:54:37.711Z,1396
2018-12-26T09:55:39.741Z,1212
2018-12-26T09:56:41.793Z,1256
2018-12-26T09:57:43.839Z,1352
2018-12-26T09:58:52.391Z,1180
2018-12-26T09:59:55.013Z,1188
2018-12-26T10:00:57.064Z,1392
2018-12-26T10:01:59.114Z,1412
2018-12-26T10:03:01.157Z,1760
2018-12-26T10:04:03.607Z,1580
2018-12-26T10:05:05.678Z,1764
2018-12-26T10:06:07.806Z,1484
2018-12-26T10:07:09.837Z,1604
2018-12-26T10:08:11.876Z,1476
2018-12-26T10:09:13.927Z,1584
2018-12-26T10:10:15.989Z,1612
2018-12-26T10:11:18.313Z,2028
2018-12-26T10:12:20.357Z,2008
2018-12-26T10:13:22.499Z,1864
2018-12-26T10:14:25.424Z,1844
2018-12-26T10:15:27.472Z,1632
2018-12-26T10:16:29.608Z,1824
2018-12-26T10:17:31.666Z,1796
2018-12-26T10:18:34.015Z,2016
2018-12-26T10:19:36.076Z,1784
2018-12-26T10:20:38.131Z,1852
2018-12-26T10:21:40.164Z,1864
2018-12-26T10:22:42.191Z,1620
2018-12-26T10:23:45.022Z,1628
2018-12-26T10:24:47.076Z,1532
2018-12-26T10:25:49.105Z,1580
2018-12-26T10:26:51.141Z,1540
2018-12-26T10:27:53.178Z,1688
2018-12-26T10:29:00.863Z,1776
2018-12-26T10:30:03.157Z,1768
2018-12-26T10:31:05.191Z,1832
2018-12-26T10:32:07.296Z,1976
2018-12-26T10:33:09.361Z,2048
2018-12-26T10:34:11.421Z,2048
2018-12-26T10:35:13.463Z,1976
2018-12-26T10:36:15.932Z,1968
2018-12-26T10:37:18.061Z,2060
2018-12-26T10:38:20.112Z,2148
2018-12-26T10:39:22.164Z,1976
2018-12-26T10:40:24.203Z,1852
2018-12-26T10:41:26.244Z,1880
2018-12-26T10:42:28.294Z,1856
2018-12-26T10:43:30.359Z,1840
2018-12-26T10:44:32.406Z,1804
2018-12-26T10:45:34.550Z,2020
2018-12-26T10:46:36.606Z,1832
2018-12-26T10:47:38.668Z,1980
2018-12-26T10:48:40.711Z,1952
2018-12-26T10:49:42.765Z,2096
2018-12-26T10:50:44.919Z,2136
2018-12-26T10:51:46.978Z,1796
2018-12-26T10:52:49.020Z,1748
2018-12-26T10:53:51.078Z,1700
2018-12-26T10:54:53.119Z,1876
2018-12-26T10:55:55.182Z,1848
2018-12-26T10:56:57.213Z,1664
2018-12-26T10:57:59.257Z,1640
2018-12-26T10:59:09.696Z,1620
2018-12-26T11:00:12.452Z,1676
2018-12-26T11:01:14.877Z,1828
2018-12-26T11:02:16.932Z,1676
2018-12-26T11:03:19.250Z,1788
2018-12-26T11:04:21.319Z,1972
2018-12-26T11:05:29.446Z,1928
2018-12-26T11:06:31.820Z,1776
2018-12-26T11:07:33.848Z,1756
2018-12-26T11:08:35.896Z,1744
2018-12-26T11:09:38.001Z,1684
2018-12-26T11:10:40.051Z,1780
2018-12-26T11:11:42.095Z,1676
2018-12-26T11:12:44.235Z,1656
2018-12-26T11:13:46.279Z,1588
2018-12-26T11:14:48.422Z,1652
2018-12-26T11:15:50.468Z,1688
2018-12-26T11:16:52.537Z,1584
2018-12-26T11:17:54.613Z,1492
2018-12-26T11:18:56.673Z,1448
2018-12-26T11:19:58.798Z,1512
2018-12-26T11:21:01.097Z,1480
2018-12-26T11:22:03.270Z,1532
2018-12-26T11:23:05.371Z,1544
2018-12-26T11:24:07.715Z,1512
2018-12-26T11:25:09.752Z,1432
2018-12-26T11:26:11.813Z,1420
2018-12-26T11:27:14.168Z,1564
2018-12-26T11:28:16.301Z,1544
2018-12-26T11:29:18.978Z,1480
2018-12-26T11:30:21.100Z,1512
2018-12-26T11:31:23.171Z,1360
2018-12-26T11:32:25.211Z,1484
2018-12-26T11:33:27.258Z,1344
2018-12-26T11:34:29.685Z,1336
2018-12-26T11:35:31.724Z,1408
2018-12-26T11:36:33.785Z,1444
2018-12-26T11:37:35.838Z,1524
2018-12-26T11:38:37.880Z,1476
2018-12-26T11:39:39.917Z,1512
2018-12-26T11:40:41.960Z,1424
2018-12-26T11:41:44.004Z,1332
2018-12-26T11:42:46.057Z,1424
2018-12-26T11:43:48.112Z,1448
2018-12-26T11:44:50.446Z,1536
2018-12-26T11:45:52.495Z,1548
2018-12-26T11:46:54.552Z,1564
2018-12-26T11:47:58.658Z,1536
2018-12-26T11:49:00.713Z,1488
2018-12-26T11:50:03.051Z,1476
2018-12-26T11:51:05.091Z,1464
2018-12-26T11:52:07.413Z,1532
2018-12-26T11:53:09.459Z,1536
2018-12-26T11:54:11.518Z,1504
2018-12-26T11:55:13.556Z,1416
2018-12-26T11:56:15.873Z,1368
2018-12-26T11:57:17.920Z,1444
2018-12-26T11:58:19.982Z,1448
2018-12-26T11:59:27.094Z,1456
2018-12-26T12:00:29.443Z,1396
2018-12-26T12:01:31.877Z,1424
2018-12-26T12:02:33.929Z,1488
2018-12-26T12:03:35.962Z,1392
2018-12-26T12:04:38.036Z,1508
2018-12-26T12:05:40.072Z,1528
2018-12-26T12:06:42.324Z,1444
2018-12-26T12:07:44.365Z,1436
2018-12-26T12:08:46.656Z,1312
2018-12-26T12:09:53.462Z,1532
2018-12-26T12:11:00.410Z,1520
2018-12-26T12:12:09.164Z,1500
2018-12-26T12:13:17.108Z,1612
2018-12-26T12:14:25.801Z,1460
2018-12-26T12:15:34.115Z,1472
2018-12-26T12:16:43.178Z,1692
2018-12-26T12:17:45.253Z,1604
2018-12-26T12:18:47.286Z,1696
2018-12-26T12:19:49.332Z,1748
2018-12-26T12:20:51.388Z,1716
2018-12-26T12:21:53.836Z,2004
2018-12-26T12:22:55.863Z,1796
2018-12-26T12:23:57.928Z,1740
2018-12-26T12:24:59.968Z,1768
2018-12-26T12:26:02.318Z,1672
2018-12-26T12:27:04.409Z,1688
2018-12-26T12:28:06.461Z,1860
2018-12-26T12:29:08.676Z,1728
2018-12-26T12:30:11.134Z,1656
2018-12-26T12:31:13.242Z,1600
2018-12-26T12:32:15.773Z,1756
2018-12-26T12:33:17.919Z,1712
2018-12-26T12:34:20.168Z,1760
2018-12-26T12:35:22.326Z,1752
2018-12-26T12:36:24.936Z,1608
2018-12-26T12:37:27.275Z,1620
2018-12-26T12:38:29.326Z,1608
2018-12-26T12:39:31.376Z,1624
2018-12-26T12:40:33.407Z,1504
2018-12-26T12:41:35.453Z,1448
2018-12-26T12:42:37.595Z,1504
2018-12-26T12:43:39.655Z,1620
2018-12-26T12:44:41.692Z,1684
2018-12-26T12:45:43.728Z,1508
2018-12-26T12:46:45.761Z,1424
2018-12-26T12:47:47.812Z,1700
2018-12-26T12:48:50.135Z,1536
2018-12-26T12:49:52.188Z,1544
2018-12-26T12:50:54.225Z,1580
2018-12-26T12:51:56.277Z,1736
2018-12-26T12:52:58.320Z,1964
2018-12-26T12:54:00.369Z,1984
2018-12-26T12:55:02.556Z,1780
2018-12-26T12:56:11.659Z,1728
2018-12-26T12:57:14.671Z,1688
2018-12-26T12:58:16.746Z,1832
2018-12-26T12:59:19.047Z,1728
2018-12-26T13:00:21.144Z,1756
2018-12-26T13:01:23.531Z,1796
2018-12-26T13:02:26.103Z,1820
2018-12-26T13:03:29.248Z,1792
2018-12-26T13:04:31.753Z,1528
2018-12-26T13:05:33.797Z,1520
2018-12-26T13:06:35.846Z,1448
2018-12-26T13:07:37.882Z,1616
2018-12-26T13:08:40.026Z,1476
2018-12-26T13:09:42.353Z,1420
2018-12-26T13:10:44.396Z,1468
2018-12-26T13:11:46.488Z,1660
2018-12-26T13:12:48.814Z,1728
2018-12-26T13:13:50.853Z,1608
2018-12-26T13:14:52.900Z,1696
2018-12-26T13:15:55.712Z,1488
2018-12-26T13:16:58.277Z,1636
2018-12-26T13:18:00.333Z,2144
2018-12-26T13:19:02.385Z,2184
2018-12-26T13:20:04.423Z,1996
2018-12-26T13:21:06.476Z,1316
2018-12-26T13:22:08.539Z,1256
2018-12-26T13:23:10.569Z,1432
2018-12-26T13:24:12.616Z,1404
2018-12-26T13:25:14.654Z,1572
2018-12-26T13:26:17.002Z,1568
2018-12-26T13:27:19.321Z,1600
2018-12-26T13:28:21.372Z,1540
2018-12-26T13:29:23.401Z,1460
2018-12-26T13:30:25.460Z,1400
2018-12-26T13:31:27.805Z,1276
2018-12-26T13:32:30.629Z,1304
2018-12-26T13:33:32.806Z,1296
2018-12-26T13:34:34.871Z,1320
2018-12-26T13:35:36.960Z,1424
2018-12-26T13:36:39.026Z,1276
2018-12-26T13:37:41.518Z,1208
2018-12-26T13:38:43.574Z,1192
2018-12-26T13:39:45.906Z,1244
2018-12-26T13:40:48.033Z,1272
2018-12-26T13:41:50.074Z,1180
2018-12-26T13:42:52.222Z,1276
2018-12-26T13:43:54.302Z,1424
2018-12-26T13:44:56.349Z,1420
2018-12-26T13:45:58.398Z,1368
2018-12-26T13:47:00.479Z,1448
2018-12-26T13:48:02.673Z,1240
2018-12-26T13:49:04.813Z,1340
2018-12-26T13:50:06.864Z,1224
2018-12-26T13:51:08.920Z,1320
2018-12-26T13:52:10.986Z,1224
2018-12-26T13:53:13.034Z,1016
2018-12-26T13:54:15.372Z,880
2018-12-26T13:55:17.559Z,964
2018-12-26T13:56:19.620Z,932
2018-12-26T13:57:21.668Z,900
2018-12-26T13:58:23.785Z,1040
2018-12-26T13:59:25.821Z,904
2018-12-26T14:00:27.935Z,840
2018-12-26T14:01:29.993Z,772
2018-12-26T14:02:32.117Z,772
2018-12-26T14:03:34.210Z,768
2018-12-26T14:04:36.268Z,788
2018-12-26T14:05:38.480Z,716
2018-12-26T14:06:40.533Z,688
2018-12-26T14:07:43.054Z,708
2018-12-26T14:08:45.128Z,688
2018-12-26T14:09:47.287Z,648
2018-12-26T14:10:49.329Z,612
2018-12-26T14:11:51.431Z,552
2018-12-26T14:12:54.000Z,584
2018-12-26T14:13:56.050Z,584
2018-12-26T14:14:58.151Z,612
2018-12-26T14:16:00.209Z,588
2018-12-26T14:17:02.570Z,584
2018-12-26T14:18:04.647Z,520
2018-12-26T14:19:06.677Z,512
2018-12-26T14:20:08.741Z,500
2018-12-26T14:21:10.788Z,504
2018-12-26T14:22:12.845Z,440
2018-12-26T14:23:15.015Z,428
2018-12-26T14:24:17.159Z,416
2018-12-26T14:25:19.238Z,460
2018-12-26T14:26:21.280Z,424
2018-12-26T14:27:29.189Z,408
2018-12-26T14:28:31.677Z,396
2018-12-26T14:29:33.749Z,384
2018-12-26T14:30:35.806Z,368
2018-12-26T14:31:38.123Z,324
2018-12-26T14:32:40.176Z,292
2018-12-26T14:33:42.335Z,308
2018-12-26T14:34:44.433Z,312
2018-12-26T14:35:46.493Z,284
2018-12-26T14:36:48.546Z,264
2018-12-26T14:37:50.635Z,228
2018-12-26T14:38:52.684Z,216
2018-12-26T14:39:54.757Z,200